createdAt,value
2019-03-20T00:00:28.271Z,7.23
2019-03-20T00:02:57.589Z,8.70
2019-03-20T00:05:26.665Z,11.43
2019-03-20T00:07:56.564Z,10.57
2019-03-20T00:10:26.996Z,11.67
2019-03-20T00:12:56.269Z,9.27
2019-03-20T00:15:25.891Z,6.67
2019-03-20T00:17:54.894Z,10.10
2019-03-20T00:20:23.983Z,7.57
2019-03-20T00:22:52.885Z,7.03
2019-03-20T00:25:22.119Z,10.67
2019-03-20T00:27:51.122Z,7.17
2019-03-20T00:30:20.230Z,15.70
2019-03-20T00:32:49.245Z,9.17
2019-03-20T00:35:18.178Z,10.20
2019-03-20T00:37:47.101Z,10.73
2019-03-20T00:40:16.290Z,12.97
2019-03-20T00:42:45.534Z,11.73
2019-03-20T00:45:15.177Z,8.90
2019-03-20T00:47:44.512Z,12.37
2019-03-20T00:50:14.370Z,10.77
2019-03-20T00:52:43.403Z,11.73
2019-03-20T00:55:12.838Z,11.30
2019-03-20T00:57:42.254Z,9.10
2019-03-20T01:00:14.145Z,6.43
2019-03-20T01:02:43.124Z,10.40
2019-03-20T01:05:13.085Z,10.57
2019-03-20T01:07:42.157Z,10.07
2019-03-20T01:10:12.461Z,6.77
2019-03-20T01:12:41.458Z,8.97
2019-03-20T01:15:10.529Z,9.33
2019-03-20T01:17:39.858Z,10.03
2019-03-20T01:20:09.631Z,9.70
2019-03-20T01:22:38.746Z,10.47
2019-03-20T01:25:08.128Z,7.37
2019-03-20T01:27:37.121Z,6.73
2019-03-20T01:30:07.017Z,7.10
2019-03-20T01:32:35.943Z,8.27
2019-03-20T01:35:05.738Z,10.60
2019-03-20T01:37:34.675Z,6.70
2019-03-20T01:40:03.704Z,9.47
2019-03-20T01:42:32.708Z,8.30
2019-03-20T01:45:02.049Z,7.07
2019-03-20T01:47:30.950Z,11.10
2019-03-20T01:49:59.917Z,8.37
2019-03-20T01:52:28.744Z,4.63
2019-03-20T01:54:57.606Z,8.87
2019-03-20T01:57:26.597Z,6.03
2019-03-20T01:59:55.778Z,8.23
2019-03-20T02:02:24.738Z,10.13
2019-03-20T02:04:53.648Z,5.47
2019-03-20T02:07:22.580Z,6.70
2019-03-20T02:09:51.877Z,8.30
2019-03-20T02:12:20.880Z,10.03
2019-03-20T02:14:49.903Z,8.67
2019-03-20T02:17:18.811Z,9.87
2019-03-20T02:19:47.737Z,7.40
2019-03-20T02:22:16.566Z,7.77
2019-03-20T02:24:45.578Z,9.37
2019-03-20T02:27:14.525Z,8.60
2019-03-20T02:29:44.389Z,8.67
2019-03-20T02:32:13.327Z,9.87
2019-03-20T02:34:42.247Z,9.13
2019-03-20T02:37:11.202Z,8.50
2019-03-20T02:39:40.117Z,9.10
2019-03-20T02:42:08.986Z,9.17
2019-03-20T02:44:37.907Z,15.67
2019-03-20T02:47:06.846Z,8.57
2019-03-20T02:49:35.805Z,8.97
2019-03-20T02:52:05.671Z,8.10
2019-03-20T02:54:34.587Z,7.97
2019-03-20T02:57:03.670Z,11.77
2019-03-20T02:59:32.601Z,8.13
2019-03-20T03:02:01.883Z,6.97
2019-03-20T03:04:30.819Z,7.57
2019-03-20T03:06:59.780Z,7.30
2019-03-20T03:09:28.710Z,6.93
2019-03-20T03:11:57.903Z,8.17
2019-03-20T03:14:26.829Z,10.23
2019-03-20T03:16:56.123Z,7.13
2019-03-20T03:19:25.348Z,7.80
2019-03-20T03:21:54.304Z,5.90
2019-03-20T03:24:23.338Z,7.67
2019-03-20T03:26:52.239Z,13.00
2019-03-20T03:29:21.431Z,5.67
2019-03-20T03:31:50.458Z,7.30
2019-03-20T03:34:19.388Z,5.87
2019-03-20T03:36:48.396Z,8.10
2019-03-20T03:39:17.575Z,7.73
2019-03-20T03:41:46.656Z,7.10
2019-03-20T03:44:15.578Z,7.77
2019-03-20T03:46:44.538Z,7.17
2019-03-20T03:49:13.796Z,9.07
2019-03-20T03:51:42.719Z,7.73
2019-03-20T03:54:11.631Z,6.43
2019-03-20T03:56:40.654Z,7.40
2019-03-20T03:59:09.727Z,7.17
2019-03-20T04:01:39.394Z,7.83
2019-03-20T04:04:08.364Z,6.70
2019-03-20T04:06:37.347Z,7.10
2019-03-20T04:09:07.709Z,13.43
2019-03-20T04:11:36.731Z,7.90
2019-03-20T04:14:05.795Z,8.80
2019-03-20T04:16:34.902Z,11.70
2019-03-20T04:19:03.895Z,8.43
2019-03-20T04:21:33.121Z,8.23
2019-03-20T04:24:02.134Z,13.17
2019-03-20T04:26:31.372Z,10.07
2019-03-20T04:29:00.319Z,6.77
2019-03-20T04:31:29.271Z,10.23
2019-03-20T04:33:58.317Z,8.83
2019-03-20T04:36:27.301Z,5.97
2019-03-20T04:38:56.221Z,6.43
2019-03-20T04:41:25.139Z,9.73
2019-03-20T04:43:54.086Z,6.83
2019-03-20T04:46:22.993Z,7.87
2019-03-20T04:48:52.211Z,7.40
2019-03-20T04:51:21.155Z,7.67
2019-03-20T04:53:50.127Z,8.33
2019-03-20T04:56:19.071Z,8.90
2019-03-20T04:58:48.011Z,8.30
2019-03-20T05:01:17.191Z,9.60
2019-03-20T05:03:46.153Z,8.30
2019-03-20T05:06:15.399Z,8.43
2019-03-20T05:08:44.335Z,8.43
2019-03-20T05:11:13.272Z,10.90
2019-03-20T05:13:42.284Z,12.47
2019-03-20T05:16:11.272Z,9.70
2019-03-20T05:18:40.214Z,9.73
2019-03-20T05:21:09.208Z,8.27
2019-03-20T05:23:38.174Z,14.00
2019-03-20T05:26:07.412Z,8.70
2019-03-20T05:28:36.379Z,6.53
2019-03-20T05:31:05.382Z,9.23
2019-03-20T05:33:34.699Z,7.67
2019-03-20T05:36:03.775Z,10.97
2019-03-20T05:38:32.742Z,12.20
2019-03-20T05:41:01.632Z,8.60
2019-03-20T05:43:30.587Z,12.37
2019-03-20T05:46:00.481Z,13.77
2019-03-20T05:48:29.719Z,12.83
2019-03-20T05:50:58.643Z,11.57
2019-03-20T05:53:27.612Z,8.30
2019-03-20T05:55:56.864Z,12.67
2019-03-20T05:58:25.831Z,14.47
2019-03-20T06:00:54.817Z,10.33
2019-03-20T06:03:23.770Z,23.17
2019-03-20T06:05:52.715Z,26.77
2019-03-20T06:08:21.684Z,27.13
2019-03-20T06:10:50.692Z,20.00
2019-03-20T06:13:19.952Z,15.67
2019-03-20T06:15:48.956Z,12.60
2019-03-20T06:18:17.923Z,17.83
2019-03-20T06:20:46.851Z,10.63
2019-03-20T06:23:16.082Z,7.07
2019-03-20T06:25:45.268Z,10.37
2019-03-20T06:28:14.195Z,11.40
2019-03-20T06:30:43.111Z,10.63
2019-03-20T06:33:12.376Z,11.20
2019-03-20T06:35:41.397Z,7.50
2019-03-20T06:38:10.642Z,9.73
2019-03-20T06:40:39.937Z,13.47
2019-03-20T06:43:08.855Z,9.10
2019-03-20T06:45:38.124Z,11.37
2019-03-20T06:48:07.054Z,13.80
2019-03-20T06:50:36.004Z,8.73
2019-03-20T06:53:05.163Z,13.80
2019-03-20T06:55:34.115Z,12.60
2019-03-20T06:58:03.455Z,9.97
2019-03-20T07:01:04.466Z,15.87
2019-03-20T07:04:17.772Z,15.10
2019-03-20T07:07:15.395Z,13.23
2019-03-20T07:09:49.173Z,8.70
2019-03-20T07:12:18.091Z,12.30
2019-03-20T07:14:47.229Z,10.80
2019-03-20T07:17:16.139Z,13.60
2019-03-20T07:19:45.415Z,9.83
2019-03-20T07:22:14.476Z,10.43
2019-03-20T07:24:43.422Z,7.17
2019-03-20T07:27:12.343Z,12.27
2019-03-20T07:29:41.290Z,13.37
2019-03-20T07:32:10.623Z,13.80
2019-03-20T07:34:39.651Z,7.80
2019-03-20T07:37:08.848Z,14.13
2019-03-20T07:39:38.055Z,12.97
2019-03-20T07:42:07.547Z,7.93
2019-03-20T07:44:36.578Z,9.63
2019-03-20T07:47:05.571Z,11.23
2019-03-20T07:49:34.883Z,9.53
2019-03-20T07:52:03.894Z,16.40
2019-03-20T07:54:32.839Z,6.37
2019-03-20T07:57:01.883Z,6.50
2019-03-20T07:59:30.864Z,8.40
2019-03-20T08:01:59.871Z,8.43
2019-03-20T08:04:28.830Z,5.57
2019-03-20T08:06:57.747Z,10.13
2019-03-20T08:09:26.718Z,6.43
2019-03-20T08:11:55.631Z,6.87
2019-03-20T08:14:24.866Z,6.30
2019-03-20T08:16:53.780Z,10.67
2019-03-20T08:19:23.367Z,7.90
2019-03-20T08:21:52.287Z,11.13
2019-03-20T08:24:21.301Z,7.50
2019-03-20T08:26:50.514Z,7.70
2019-03-20T08:29:19.782Z,8.63
2019-03-20T08:31:49.004Z,8.27
2019-03-20T08:34:17.940Z,9.07
2019-03-20T08:36:47.095Z,13.93
2019-03-20T08:39:16.731Z,10.00
2019-03-20T08:41:45.723Z,7.27
2019-03-20T08:44:14.986Z,7.53
2019-03-20T08:46:44.279Z,10.30
2019-03-20T08:49:13.210Z,7.43
2019-03-20T08:51:42.157Z,6.07
2019-03-20T08:54:11.058Z,6.93
2019-03-20T08:56:39.991Z,10.37
2019-03-20T08:59:09.001Z,6.57
2019-03-20T09:01:38.249Z,11.80
2019-03-20T09:04:07.742Z,8.60
2019-03-20T09:06:36.754Z,8.27
2019-03-20T09:09:08.296Z,7.40
2019-03-20T09:11:37.247Z,7.77
2019-03-20T09:14:06.187Z,9.40
2019-03-20T09:16:35.803Z,7.17
2019-03-20T09:19:05.170Z,9.03
2019-03-20T09:21:34.188Z,7.33
2019-03-20T09:24:03.099Z,8.47
2019-03-20T09:26:32.118Z,7.03
2019-03-20T09:29:01.461Z,12.07
2019-03-20T09:31:30.675Z,8.90
2019-03-20T09:33:59.633Z,8.43
2019-03-20T09:36:28.583Z,8.07
2019-03-20T09:38:57.606Z,8.07
2019-03-20T09:41:26.538Z,6.43
2019-03-20T09:43:55.719Z,7.60
2019-03-20T09:46:24.651Z,10.77
2019-03-20T09:48:53.663Z,8.37
2019-03-20T09:51:22.609Z,5.97
2019-03-20T09:53:51.888Z,7.37
2019-03-20T09:56:20.822Z,6.07
2019-03-20T09:58:49.769Z,7.83
2019-03-20T10:01:18.699Z,9.60
2019-03-20T10:03:47.621Z,6.57
2019-03-20T10:06:16.622Z,6.57
2019-03-20T10:08:53.820Z,15.13
2019-03-20T10:11:16.122Z,5.40
2019-03-20T10:13:45.398Z,6.13
2019-03-20T10:16:14.628Z,8.00
2019-03-20T10:18:43.952Z,9.50
2019-03-20T10:21:13.314Z,8.90
2019-03-20T10:23:42.603Z,6.13
2019-03-20T10:26:11.852Z,9.80
2019-03-20T10:28:40.815Z,8.67
2019-03-20T10:31:09.723Z,10.47
2019-03-20T10:33:38.699Z,9.27
2019-03-20T10:36:07.680Z,6.97
2019-03-20T10:38:36.994Z,9.97
2019-03-20T10:41:06.506Z,12.20
2019-03-20T10:43:35.442Z,12.03
2019-03-20T10:46:04.846Z,10.67
2019-03-20T10:48:34.021Z,10.50
2019-03-20T10:51:02.954Z,7.33
2019-03-20T10:53:31.886Z,9.83
2019-03-20T10:56:00.822Z,9.47
2019-03-20T10:58:30.071Z,9.20
2019-03-20T11:00:59.217Z,11.37
2019-03-20T11:03:28.195Z,7.37
2019-03-20T11:05:57.148Z,9.20
2019-03-20T11:08:26.398Z,8.27
2019-03-20T11:10:55.430Z,8.03
2019-03-20T11:13:24.458Z,12.33
2019-03-20T11:15:53.438Z,9.40
2019-03-20T11:18:22.413Z,11.23
2019-03-20T11:20:53.490Z,8.83
2019-03-20T11:23:22.224Z,10.53
2019-03-20T11:25:51.390Z,11.23
2019-03-20T11:28:20.748Z,8.20
2019-03-20T11:30:49.737Z,8.60
2019-03-20T11:33:18.717Z,10.70
2019-03-20T11:35:47.693Z,11.63
2019-03-20T11:38:16.744Z,12.37
2019-03-20T11:40:45.649Z,15.90
2019-03-20T11:43:15.203Z,9.50
2019-03-20T11:45:44.127Z,11.07
2019-03-20T11:48:13.477Z,14.20
2019-03-20T11:50:42.491Z,9.17
2019-03-20T11:53:11.793Z,9.77
2019-03-20T11:55:40.771Z,7.73
2019-03-20T11:58:09.864Z,7.30
2019-03-20T12:00:38.971Z,14.57
2019-03-20T12:03:08.251Z,13.40
2019-03-20T12:05:37.873Z,11.47
2019-03-20T12:08:06.996Z,24.77
2019-03-20T12:10:36.234Z,8.67
2019-03-20T12:13:05.333Z,7.77
2019-03-20T12:15:34.583Z,9.03
2019-03-20T12:18:03.903Z,11.33
2019-03-20T12:20:32.916Z,7.40
2019-03-20T12:23:02.235Z,8.83
2019-03-20T12:25:32.033Z,10.67
2019-03-20T12:28:02.203Z,10.97
2019-03-20T12:30:31.302Z,8.83
2019-03-20T12:33:00.682Z,9.97
2019-03-20T12:35:30.551Z,10.43
2019-03-20T12:37:59.569Z,11.27
2019-03-20T12:40:29.440Z,9.47
2019-03-20T12:42:58.538Z,8.43
2019-03-20T12:45:29.496Z,11.93
2019-03-20T12:47:58.847Z,9.37
2019-03-20T12:50:28.287Z,8.43
2019-03-20T12:52:57.443Z,8.47
2019-03-20T12:55:26.530Z,14.03
2019-03-20T12:57:55.781Z,12.27
2019-03-20T13:00:27.295Z,12.17
2019-03-20T13:02:55.695Z,8.93
2019-03-20T13:05:24.845Z,9.23
2019-03-20T13:07:53.766Z,11.67
2019-03-20T13:10:22.868Z,10.20
2019-03-20T13:12:51.893Z,12.37
2019-03-20T13:15:22.191Z,11.63
2019-03-20T13:17:51.663Z,8.90
2019-03-20T13:20:20.855Z,11.83
2019-03-20T13:22:52.998Z,10.30
2019-03-20T13:25:22.025Z,11.57
2019-03-20T13:27:51.231Z,13.83
2019-03-20T13:30:22.867Z,10.77
2019-03-20T13:32:51.855Z,9.13
2019-03-20T13:35:21.151Z,12.10
2019-03-20T13:37:50.509Z,11.63
2019-03-20T13:40:19.519Z,11.97
2019-03-20T13:42:48.445Z,11.03
2019-03-20T13:45:17.803Z,9.00
2019-03-20T13:47:47.140Z,13.30
2019-03-20T13:50:16.402Z,10.53
2019-03-20T13:52:45.739Z,9.80
2019-03-20T13:55:14.909Z,10.73
2019-03-20T13:57:44.279Z,8.37
2019-03-20T14:00:15.967Z,10.53
2019-03-20T14:02:45.329Z,10.53
2019-03-20T14:05:14.671Z,12.07
2019-03-20T14:07:43.678Z,10.77
2019-03-20T14:10:24.277Z,18.40
2019-03-20T14:12:45.595Z,14.80
2019-03-20T14:15:14.833Z,13.67
2019-03-20T14:17:43.746Z,12.13
2019-03-20T14:20:15.021Z,17.30
2019-03-20T14:22:44.190Z,11.27
2019-03-20T14:25:13.306Z,12.60
2019-03-20T14:27:42.327Z,12.60
2019-03-20T14:30:20.447Z,10.80
2019-03-20T14:32:49.605Z,10.30
2019-03-20T14:35:18.566Z,15.40
2019-03-20T14:37:47.604Z,12.40
2019-03-20T14:40:17.742Z,12.87
2019-03-20T14:42:46.968Z,13.50
2019-03-20T14:45:16.151Z,12.10
2019-03-20T14:47:45.379Z,12.80
2019-03-20T14:50:19.047Z,16.50
2019-03-20T14:52:48.147Z,15.13
2019-03-20T14:55:17.217Z,13.10
2019-03-20T14:57:46.289Z,19.60
2019-03-20T15:00:17.691Z,17.03
2019-03-20T15:02:46.825Z,11.73
2019-03-20T15:05:16.558Z,15.40
2019-03-20T15:07:45.561Z,16.87
2019-03-20T15:10:16.415Z,13.40
2019-03-20T15:12:45.413Z,16.90
2019-03-20T15:15:18.160Z,12.80
2019-03-20T15:17:47.226Z,13.50
2019-03-20T15:20:16.522Z,14.27
2019-03-20T15:22:45.926Z,14.33
2019-03-20T15:25:15.367Z,16.93
2019-03-20T15:27:44.292Z,17.13
2019-03-20T15:30:15.079Z,14.60
2019-03-20T15:32:44.397Z,16.87
2019-03-20T15:35:13.683Z,12.87
2019-03-20T15:37:42.674Z,15.23
2019-03-20T15:40:13.750Z,14.70
2019-03-20T15:42:42.679Z,16.00
2019-03-20T15:45:12.612Z,15.10
2019-03-20T15:47:41.542Z,20.37
2019-03-20T15:50:11.859Z,14.20
2019-03-20T15:52:41.227Z,14.87
2019-03-20T15:55:12.898Z,15.17
2019-03-20T15:57:41.912Z,15.10
2019-03-20T16:00:14.127Z,17.27
2019-03-20T16:02:43.145Z,14.43
2019-03-20T16:05:12.256Z,20.13
2019-03-20T16:07:41.630Z,15.90
2019-03-20T16:10:16.039Z,16.50
2019-03-20T16:12:45.415Z,17.80
2019-03-20T16:15:15.967Z,15.37
2019-03-20T16:17:45.375Z,17.80
2019-03-20T16:20:17.222Z,18.50
2019-03-20T16:22:46.301Z,14.40
2019-03-20T16:25:15.663Z,19.03
2019-03-20T16:27:45.013Z,19.43
2019-03-20T16:30:19.170Z,21.57
2019-03-20T16:32:48.195Z,14.63
2019-03-20T16:35:17.461Z,18.70
2019-03-20T16:37:46.567Z,19.00
2019-03-20T16:40:17.702Z,17.43
2019-03-20T16:42:46.821Z,16.87
2019-03-20T16:45:23.960Z,15.70
2019-03-20T16:47:52.966Z,17.80
2019-03-20T16:50:22.041Z,17.43
2019-03-20T16:52:51.364Z,15.97
2019-03-20T16:55:20.439Z,15.23
2019-03-20T16:57:49.710Z,16.13
2019-03-20T17:00:23.607Z,14.83
2019-03-20T17:02:52.626Z,16.20
2019-03-20T17:05:22.218Z,16.57
2019-03-20T17:07:51.152Z,14.97
2019-03-20T17:10:22.378Z,16.40
2019-03-20T17:12:51.745Z,15.23
2019-03-20T17:15:22.407Z,14.63
2019-03-20T17:17:51.418Z,15.53
2019-03-20T17:20:20.355Z,19.40
2019-03-20T17:22:49.476Z,18.53
2019-03-20T17:25:18.452Z,14.53
2019-03-20T17:27:47.803Z,17.00
2019-03-20T17:30:22.055Z,16.77
2019-03-20T17:32:50.981Z,16.53
2019-03-20T17:35:20.036Z,15.50
2019-03-20T17:37:48.987Z,15.57
2019-03-20T17:40:18.719Z,14.67
2019-03-20T17:42:48.371Z,17.27
2019-03-20T17:45:19.290Z,15.90
2019-03-20T17:47:48.236Z,13.60
2019-03-20T17:50:22.488Z,16.07
2019-03-20T17:52:51.514Z,15.87
2019-03-20T17:55:20.568Z,14.73
2019-03-20T17:57:49.682Z,15.43
2019-03-20T18:00:37.078Z,14.60
2019-03-20T18:03:06.876Z,17.40
2019-03-20T18:05:36.451Z,15.33
2019-03-20T18:08:05.809Z,14.40
2019-03-20T18:10:34.968Z,17.93
2019-03-20T18:13:04.603Z,16.30
2019-03-20T18:15:33.722Z,17.30
2019-03-20T18:18:02.751Z,14.17
2019-03-20T18:20:31.797Z,17.57
2019-03-20T18:23:00.750Z,16.00
2019-03-20T18:25:29.741Z,15.20
2019-03-20T18:27:58.766Z,15.33
2019-03-20T18:30:27.786Z,18.00
2019-03-20T18:32:56.868Z,16.57
2019-03-20T18:35:25.866Z,15.30
2019-03-20T18:37:54.903Z,17.73
2019-03-20T18:40:24.128Z,14.00
2019-03-20T18:42:53.439Z,14.33
2019-03-20T18:45:22.523Z,16.77
2019-03-20T18:47:51.903Z,13.47
2019-03-20T18:50:21.092Z,20.03
2019-03-20T18:52:50.921Z,17.83
2019-03-20T18:55:20.123Z,17.20
2019-03-20T18:57:49.502Z,16.87
2019-03-20T19:00:20.849Z,16.73
2019-03-20T19:02:50.200Z,14.73
2019-03-20T19:05:47.436Z,17.13
2019-03-20T19:08:16.541Z,18.03
2019-03-20T19:10:45.800Z,15.90
2019-03-20T19:13:14.890Z,15.37
2019-03-20T19:15:43.957Z,17.27
2019-03-20T19:18:13.027Z,13.43
2019-03-20T19:20:42.570Z,13.00
2019-03-20T19:23:11.634Z,15.70
2019-03-20T19:25:40.617Z,15.80
2019-03-20T19:28:10.301Z,13.47
2019-03-20T19:30:39.324Z,15.57
2019-03-20T19:33:09.851Z,14.77
2019-03-20T19:35:39.076Z,14.00
2019-03-20T19:38:08.089Z,16.83
2019-03-20T19:40:37.135Z,18.17
2019-03-20T19:43:06.213Z,16.67
2019-03-20T19:45:35.437Z,13.93
2019-03-20T19:48:04.470Z,16.53
2019-03-20T19:50:33.447Z,15.90
2019-03-20T19:53:02.775Z,16.57
2019-03-20T19:55:31.759Z,20.30
2019-03-20T19:58:01.360Z,20.53
2019-03-20T20:00:30.445Z,19.13
2019-03-20T20:02:59.664Z,18.10
2019-03-20T20:05:28.607Z,17.43
2019-03-20T20:07:58.139Z,18.47
2019-03-20T20:10:27.159Z,18.13
2019-03-20T20:12:56.118Z,19.73
2019-03-20T20:15:25.147Z,19.07
2019-03-20T20:17:54.472Z,16.10
2019-03-20T20:20:23.503Z,17.33
2019-03-20T20:22:52.485Z,16.53
2019-03-20T20:25:21.503Z,19.07
2019-03-20T20:27:50.798Z,19.67
2019-03-20T20:30:19.918Z,17.73
2019-03-20T20:32:49.287Z,18.83
2019-03-20T20:35:18.231Z,18.90
2019-03-20T20:37:47.260Z,19.30
2019-03-20T20:40:17.216Z,19.50
2019-03-20T20:42:46.212Z,18.57
2019-03-20T20:45:15.866Z,16.37
2019-03-20T20:47:44.965Z,17.87
2019-03-20T20:50:14.426Z,16.67
2019-03-20T20:52:43.435Z,15.23
2019-03-20T20:55:13.202Z,20.20
2019-03-20T20:57:42.458Z,16.57
2019-03-20T21:00:14.611Z,19.00
2019-03-20T21:02:43.797Z,18.30
2019-03-20T21:05:12.810Z,15.93
2019-03-20T21:07:41.940Z,16.00
2019-03-20T21:10:12.188Z,16.60
2019-03-20T21:12:42.681Z,16.13
2019-03-20T21:15:38.626Z,17.33
2019-03-20T21:18:59.348Z,18.70
2019-03-20T21:21:41.338Z,17.63
2019-03-20T21:24:29.988Z,18.00
2019-03-20T21:27:43.323Z,19.63
2019-03-20T21:30:48.960Z,17.00
2019-03-20T21:33:31.435Z,18.10
2019-03-20T21:36:50.633Z,16.30
2019-03-20T21:39:20.094Z,15.07
2019-03-20T21:42:41.386Z,21.10
2019-03-20T21:46:03.818Z,16.70
2019-03-20T21:48:33.267Z,16.60
2019-03-20T21:51:15.931Z,13.73
2019-03-20T21:54:42.190Z,14.60
2019-03-20T21:57:52.030Z,11.47
2019-03-20T22:00:57.256Z,14.27
2019-03-20T22:03:26.717Z,12.60
2019-03-20T22:06:32.762Z,10.90
2019-03-20T22:09:08.515Z,12.53
2019-03-20T22:12:30.113Z,13.27
2019-03-20T22:15:05.295Z,29.30
2019-03-20T22:18:05.929Z,14.43
2019-03-20T22:21:08.695Z,11.37
2019-03-20T22:24:02.709Z,13.17
2019-03-20T22:27:08.520Z,12.53
2019-03-20T22:29:38.107Z,10.43
2019-03-20T22:32:57.009Z,12.47
2019-03-20T22:36:08.293Z,9.20
2019-03-20T22:39:13.746Z,9.50
2019-03-20T22:42:02.076Z,8.87
2019-03-20T22:44:31.683Z,8.27
2019-03-20T22:47:30.902Z,10.50
2019-03-20T22:50:23.015Z,10.87
2019-03-20T22:53:42.034Z,8.17
2019-03-20T22:56:59.682Z,13.47
2019-03-20T22:59:29.210Z,9.77
2019-03-20T23:02:18.798Z,12.43
2019-03-20T23:04:51.877Z,12.43
2019-03-20T23:07:21.421Z,10.27
2019-03-20T23:09:50.887Z,10.00
2019-03-20T23:12:20.771Z,11.93
2019-03-20T23:14:50.732Z,10.00
2019-03-20T23:17:20.606Z,14.50
2019-03-20T23:19:51.372Z,11.20
2019-03-20T23:22:20.831Z,13.77
2019-03-20T23:24:50.308Z,12.47
2019-03-20T23:27:23.781Z,13.47
2019-03-20T23:29:53.329Z,14.10
2019-03-20T23:32:22.847Z,14.33
2019-03-20T23:34:52.338Z,16.33
2019-03-20T23:37:21.790Z,16.73
2019-03-20T23:39:51.279Z,15.30
2019-03-20T23:42:21.895Z,19.20
2019-03-20T23:44:51.390Z,16.90
2019-03-20T23:47:27.175Z,14.77
2019-03-20T23:49:56.671Z,16.47
2019-03-20T23:52:26.766Z,19.17
2019-03-20T23:54:57.330Z,17.30
2019-03-20T23:57:27.097Z,14.10
2019-03-20T23:59:58.897Z,18.67
